Terminal Aerodrome Forecast
Issued by NWS Greer, SC

Home | Current Version | Previous Version | Text Only | Print | Product List | Glossary On
Versions: 1 2 3 4 5 6 7 8 9 10 11 12 13 14 15 16 17 18
000
FTUS42 KGSP 012333
TAFGSP
TAF
KGSP 012333Z 0200/0224 17004KT 5SM BR OVC006
     FM020500 23005KT 2SM BR OVC003
     FM021600 29004KT P6SM BKN015
     FM022000 05005KT P6SM BKN050=

USA.gov is the U.S. government's official web portal to all federal, state and local government web resources and services.